createdAt,value
2023-01-25T00:00:30.479Z,52.67
2023-01-25T00:02:57.402Z,49.00
2023-01-25T00:05:24.319Z,46.57
2023-01-25T00:07:50.924Z,53.87
2023-01-25T00:10:17.701Z,51.40
2023-01-25T00:12:44.269Z,65.17
2023-01-25T00:15:11.182Z,60.70
2023-01-25T00:17:37.785Z,51.17
2023-01-25T00:20:04.710Z,50.10
2023-01-25T00:22:31.251Z,58.03
2023-01-25T00:24:57.826Z,57.17
2023-01-25T00:27:24.364Z,64.00
2023-01-25T00:29:50.936Z,69.13
2023-01-25T00:32:17.545Z,80.30
2023-01-25T00:34:49.502Z,78.20
2023-01-25T00:37:24.608Z,79.97
2023-01-25T00:39:52.024Z,75.70
2023-01-25T00:42:19.846Z,87.07
2023-01-25T00:44:47.998Z,72.20
2023-01-25T00:47:15.478Z,76.27
2023-01-25T00:49:44.002Z,63.70
2023-01-25T00:52:11.756Z,67.50
2023-01-25T00:54:38.740Z,65.23
2023-01-25T00:57:05.385Z,58.73
2023-01-25T00:59:31.952Z,59.67
2023-01-25T01:01:58.830Z,54.07
2023-01-25T01:04:25.703Z,57.77
2023-01-25T01:06:53.818Z,51.80
2023-01-25T01:09:21.798Z,49.43
2023-01-25T01:11:48.441Z,54.03
2023-01-25T01:14:15.394Z,49.17
2023-01-25T01:16:42.025Z,47.37
2023-01-25T01:19:08.629Z,43.60
2023-01-25T01:21:35.255Z,52.70
2023-01-25T01:24:01.859Z,52.07
2023-01-25T01:26:28.449Z,54.70
2023-01-25T01:28:55.058Z,56.83
2023-01-25T01:31:23.617Z,58.90
2023-01-25T01:33:55.446Z,47.03
2023-01-25T01:36:23.939Z,42.27
2023-01-25T01:38:50.589Z,42.10
2023-01-25T01:41:18.145Z,46.13
2023-01-25T01:43:45.385Z,45.40
2023-01-25T01:46:24.121Z,50.10
2023-01-25T01:48:58.988Z,51.63
2023-01-25T01:51:47.313Z,55.30
2023-01-25T01:54:31.409Z,57.57
2023-01-25T01:57:14.970Z,58.87
2023-01-25T01:59:53.286Z,61.03
2023-01-25T02:02:20.101Z,59.93
2023-01-25T02:04:50.802Z,56.43
2023-01-25T02:07:19.678Z,70.67
2023-01-25T02:09:47.872Z,65.23
2023-01-25T02:12:15.594Z,65.03
2023-01-25T02:14:47.949Z,73.20
2023-01-25T02:17:14.721Z,87.23
2023-01-25T02:20:09.230Z,88.77
2023-01-25T02:23:01.751Z,96.20
2023-01-25T02:25:29.670Z,91.27
2023-01-25T02:28:04.336Z,94.77
2023-01-25T02:30:31.269Z,81.17
2023-01-25T02:32:57.843Z,67.43
2023-01-25T02:35:56.119Z,76.83
2023-01-25T02:38:22.879Z,59.67
2023-01-25T02:40:55.775Z,75.53
2023-01-25T02:43:27.246Z,66.67
2023-01-25T02:46:01.136Z,75.70
2023-01-25T02:48:27.774Z,79.93
2023-01-25T02:50:54.493Z,81.30
2023-01-25T02:53:21.101Z,67.90
2023-01-25T02:55:47.638Z,75.13
2023-01-25T02:58:14.210Z,63.57
2023-01-25T03:00:40.827Z,65.63
2023-01-25T03:03:07.394Z,72.63
2023-01-25T03:05:33.982Z,76.10
2023-01-25T03:08:00.626Z,77.63
2023-01-25T03:10:27.180Z,79.60
2023-01-25T03:12:53.859Z,82.13
2023-01-25T03:15:20.419Z,73.40
2023-01-25T03:17:46.962Z,75.63
2023-01-25T03:20:13.567Z,84.77
2023-01-25T03:22:40.168Z,78.27
2023-01-25T03:25:07.861Z,86.57
2023-01-25T03:27:34.594Z,74.73
2023-01-25T03:30:01.144Z,85.20
2023-01-25T03:32:27.837Z,70.10
2023-01-25T03:34:54.463Z,71.10
2023-01-25T03:37:21.385Z,73.33
2023-01-25T03:39:47.937Z,74.33
2023-01-25T03:42:15.196Z,76.00
2023-01-25T03:44:41.756Z,69.87
2023-01-25T03:47:08.365Z,66.10
2023-01-25T03:49:35.039Z,58.73
2023-01-25T03:52:01.675Z,74.23
2023-01-25T03:54:28.306Z,72.70
2023-01-25T03:56:54.935Z,71.20
2023-01-25T03:59:21.548Z,67.57
2023-01-25T04:01:48.402Z,69.57
2023-01-25T04:04:15.056Z,77.23
2023-01-25T04:06:41.700Z,70.60
2023-01-25T04:09:08.439Z,64.37
2023-01-25T04:11:35.135Z,57.97
2023-01-25T04:14:01.805Z,55.80
2023-01-25T04:16:30.408Z,55.00
2023-01-25T04:18:57.214Z,48.67
2023-01-25T04:21:24.110Z,58.73
2023-01-25T04:23:50.816Z,52.53
2023-01-25T04:26:17.447Z,67.27
2023-01-25T04:28:44.057Z,47.80
2023-01-25T04:31:11.208Z,46.40
2023-01-25T04:33:37.830Z,43.27
2023-01-25T04:36:05.755Z,46.27
2023-01-25T04:38:32.306Z,42.73
2023-01-25T04:40:59.049Z,34.77
2023-01-25T04:43:26.509Z,39.70
2023-01-25T04:45:53.247Z,38.90
2023-01-25T04:48:19.999Z,42.07
2023-01-25T04:50:46.845Z,43.50
2023-01-25T04:53:13.882Z,39.37
2023-01-25T04:55:40.744Z,35.70
2023-01-25T04:58:07.333Z,39.23
2023-01-25T05:00:33.959Z,39.47
2023-01-25T05:03:00.561Z,40.83
2023-01-25T05:05:27.306Z,41.53
2023-01-25T05:07:53.849Z,39.43
2023-01-25T05:10:20.494Z,37.40
2023-01-25T05:12:47.055Z,36.03
2023-01-25T05:15:13.967Z,44.90
2023-01-25T05:17:40.593Z,38.13
2023-01-25T05:20:07.743Z,32.47
2023-01-25T05:22:34.290Z,39.70
2023-01-25T05:25:02.800Z,36.70
2023-01-25T05:27:29.708Z,36.20
2023-01-25T05:29:57.406Z,42.27
2023-01-25T05:32:24.568Z,39.10
2023-01-25T05:34:51.294Z,41.60
2023-01-25T05:37:19.799Z,43.33
2023-01-25T05:39:46.412Z,46.00
2023-01-25T05:42:17.983Z,38.80
2023-01-25T05:44:47.093Z,42.00
2023-01-25T05:47:16.546Z,41.70
2023-01-25T05:49:43.616Z,41.20
2023-01-25T05:52:15.057Z,39.07
2023-01-25T05:54:41.816Z,38.43
2023-01-25T05:57:08.452Z,46.43
2023-01-25T05:59:51.427Z,49.40
2023-01-25T06:02:18.032Z,43.80
2023-01-25T06:04:44.658Z,42.27
2023-01-25T06:07:11.248Z,46.03
2023-01-25T06:09:37.804Z,49.47
2023-01-25T06:12:06.006Z,44.80
2023-01-25T06:14:32.959Z,49.60
2023-01-25T06:16:59.480Z,51.43
2023-01-25T06:19:26.058Z,49.07
2023-01-25T06:21:52.653Z,48.33
2023-01-25T06:24:19.339Z,47.07
2023-01-25T06:26:45.901Z,48.40
2023-01-25T06:29:12.511Z,52.10
2023-01-25T06:31:39.135Z,47.63
2023-01-25T06:34:06.355Z,48.23
2023-01-25T06:36:33.155Z,47.17
2023-01-25T06:41:27.660Z,44.00
2023-01-25T06:43:55.754Z,46.23
2023-01-25T06:46:22.387Z,49.40
2023-01-25T06:48:49.174Z,44.57
2023-01-25T06:51:15.946Z,49.80
2023-01-25T06:53:45.066Z,43.10
2023-01-25T06:56:17.793Z,45.43
2023-01-25T06:58:45.131Z,45.83
2023-01-25T07:01:26.904Z,45.23
2023-01-25T07:03:55.920Z,43.50
2023-01-25T07:06:23.715Z,47.93
2023-01-25T07:08:50.839Z,44.07
2023-01-25T07:11:18.965Z,49.93
2023-01-25T07:13:47.481Z,48.00
2023-01-25T07:16:17.377Z,54.13
2023-01-25T07:18:44.436Z,49.07
2023-01-25T07:21:13.895Z,56.93
2023-01-25T07:23:41.650Z,55.83
2023-01-25T07:26:19.883Z,49.30
2023-01-25T07:28:47.485Z,49.07
2023-01-25T07:31:15.497Z,51.87
2023-01-25T07:33:42.169Z,46.43
2023-01-25T07:36:10.687Z,54.00
2023-01-25T07:38:37.977Z,55.50
2023-01-25T07:41:05.269Z,51.30
2023-01-25T07:43:32.324Z,53.37
2023-01-25T07:46:07.023Z,53.87
2023-01-25T07:48:34.220Z,57.47
2023-01-25T07:51:20.342Z,56.00
2023-01-25T07:53:47.397Z,57.90
2023-01-25T07:56:13.948Z,52.67
2023-01-25T07:58:40.495Z,51.07
2023-01-25T08:01:16.042Z,46.53
2023-01-25T08:03:43.935Z,53.70
2023-01-25T08:06:11.028Z,49.87
2023-01-25T08:08:41.311Z,51.53
2023-01-25T08:11:15.188Z,47.40
2023-01-25T08:13:49.711Z,49.27
2023-01-25T08:16:19.146Z,56.63
2023-01-25T08:18:50.191Z,57.17
2023-01-25T08:21:17.248Z,47.33
2023-01-25T08:23:44.008Z,49.97
2023-01-25T08:26:12.958Z,53.40
2023-01-25T08:28:40.199Z,47.10
2023-01-25T08:31:11.864Z,57.10
2023-01-25T08:33:39.753Z,54.90
2023-01-25T08:36:09.383Z,66.10
2023-01-25T08:38:36.668Z,61.37
2023-01-25T08:41:08.772Z,57.93
2023-01-25T08:43:35.771Z,55.57
2023-01-25T08:46:03.658Z,52.80
2023-01-25T08:48:30.242Z,50.57
2023-01-25T08:50:56.971Z,52.53
2023-01-25T08:53:23.686Z,55.27
2023-01-25T08:55:51.109Z,54.57
2023-01-25T08:58:21.878Z,54.40
2023-01-25T09:00:49.602Z,56.07
2023-01-25T09:03:18.018Z,53.13
2023-01-25T09:05:44.753Z,54.10
2023-01-25T09:08:11.584Z,52.73
2023-01-25T09:10:38.180Z,54.87
2023-01-25T09:13:06.403Z,53.53
2023-01-25T09:15:34.384Z,57.37
2023-01-25T09:18:01.095Z,53.50
2023-01-25T09:20:28.314Z,57.23
2023-01-25T09:22:56.185Z,55.80
2023-01-25T09:25:22.835Z,56.30
2023-01-25T09:27:55.211Z,55.67
2023-01-25T09:30:26.355Z,63.30
2023-01-25T09:32:57.416Z,52.63
2023-01-25T09:35:24.063Z,55.27
2023-01-25T09:37:52.118Z,57.80
2023-01-25T09:40:22.237Z,55.70
2023-01-25T09:43:05.759Z,59.93
2023-01-25T09:45:36.569Z,66.17
2023-01-25T09:48:28.239Z,63.43
2023-01-25T09:51:27.679Z,58.63
2023-01-25T09:53:57.052Z,61.40
2023-01-25T09:56:33.909Z,54.17
2023-01-25T09:59:10.611Z,55.20
2023-01-25T10:01:59.697Z,61.73
2023-01-25T10:04:37.605Z,57.50
2023-01-25T10:07:21.441Z,60.90
2023-01-25T10:09:59.821Z,61.90
2023-01-25T10:12:33.522Z,61.17
2023-01-25T10:15:00.120Z,65.50
2023-01-25T10:17:39.332Z,59.33
2023-01-25T10:20:24.059Z,60.23
2023-01-25T10:23:06.601Z,61.87
2023-01-25T10:25:46.033Z,63.40
2023-01-25T10:28:30.225Z,55.60
2023-01-25T10:31:05.866Z,60.23
2023-01-25T10:33:40.215Z,62.00
2023-01-25T10:36:07.342Z,65.20
2023-01-25T10:38:39.413Z,66.07
2023-01-25T10:41:16.656Z,70.20
2023-01-25T10:43:43.287Z,71.23
2023-01-25T10:46:25.558Z,63.63
2023-01-25T10:48:52.252Z,70.50
2023-01-25T10:51:30.287Z,68.77
2023-01-25T10:54:03.524Z,72.63
2023-01-25T10:56:33.925Z,68.53
2023-01-25T10:59:19.136Z,71.23
2023-01-25T11:01:45.851Z,68.33
2023-01-25T11:04:23.206Z,62.07
2023-01-25T11:06:51.348Z,72.30
2023-01-25T11:09:21.021Z,67.40
2023-01-25T11:11:56.260Z,71.33
2023-01-25T11:14:26.954Z,71.43
2023-01-25T11:16:55.253Z,73.20
2023-01-25T11:19:38.152Z,71.07
2023-01-25T11:22:26.247Z,72.60
2023-01-25T11:24:52.897Z,72.20
2023-01-25T11:27:25.222Z,78.23
2023-01-25T11:30:15.838Z,69.20
2023-01-25T11:32:42.681Z,70.93
2023-01-25T11:35:33.013Z,73.37
2023-01-25T11:38:14.770Z,73.57
2023-01-25T11:40:50.415Z,65.97
2023-01-25T11:43:24.003Z,71.40
2023-01-25T11:45:54.112Z,74.23
2023-01-25T11:49:03.062Z,74.90
2023-01-25T11:51:46.108Z,68.40
2023-01-25T11:54:29.683Z,73.87
2023-01-25T11:57:24.513Z,72.87
2023-01-25T12:00:00.816Z,70.87
2023-01-25T12:02:56.443Z,67.07
2023-01-25T12:05:38.805Z,73.67
2023-01-25T12:08:38.828Z,82.47
2023-01-25T12:11:05.332Z,92.63
2023-01-25T12:13:47.429Z,92.07
2023-01-25T12:16:54.692Z,82.20
2023-01-25T12:19:45.137Z,90.93
2023-01-25T12:22:45.458Z,80.07
2023-01-25T12:25:47.687Z,84.70
2023-01-25T12:28:27.545Z,95.20
2023-01-25T12:31:16.911Z,82.87
2023-01-25T12:33:51.604Z,83.40
2023-01-25T12:36:23.897Z,89.33
2023-01-25T12:38:59.601Z,88.50
2023-01-25T12:42:04.703Z,96.83
2023-01-25T12:44:37.623Z,84.20
2023-01-25T12:47:20.440Z,98.00
2023-01-25T12:49:59.369Z,78.93
2023-01-25T12:52:39.385Z,87.40
2023-01-25T12:55:12.755Z,89.10
2023-01-25T12:57:50.549Z,82.03
2023-01-25T13:00:23.505Z,80.77
2023-01-25T13:03:08.069Z,87.17
2023-01-25T13:05:39.492Z,78.67
2023-01-25T13:08:30.064Z,83.93
2023-01-25T13:11:13.095Z,87.87
2023-01-25T13:13:39.889Z,81.23
2023-01-25T13:16:50.196Z,98.57
2023-01-25T13:19:20.853Z,97.03
2023-01-25T13:21:49.649Z,92.90
2023-01-25T13:24:29.312Z,104.60
2023-01-25T13:26:55.817Z,90.13
2023-01-25T13:29:42.888Z,81.70
2023-01-25T13:32:15.285Z,86.43
2023-01-25T13:34:42.433Z,97.57
2023-01-25T13:37:18.895Z,86.67
2023-01-25T13:39:49.248Z,87.27
2023-01-25T13:42:21.447Z,102.50
2023-01-25T13:44:51.715Z,87.23
2023-01-25T13:47:22.536Z,92.93
2023-01-25T13:49:55.358Z,80.80
2023-01-25T13:52:23.430Z,84.27
2023-01-25T13:54:53.925Z,85.90
2023-01-25T13:57:26.842Z,87.30
2023-01-25T14:00:11.706Z,97.33
2023-01-25T14:02:39.538Z,96.47
2023-01-25T14:05:08.027Z,84.00
2023-01-25T14:07:36.891Z,93.70
2023-01-25T14:10:10.480Z,90.43
2023-01-25T14:12:42.746Z,95.37
2023-01-25T14:15:28.405Z,93.00
2023-01-25T14:18:13.055Z,94.50
2023-01-25T14:20:40.443Z,97.50
2023-01-25T14:23:24.571Z,106.53
2023-01-25T14:25:52.442Z,104.73
2023-01-25T14:28:19.157Z,102.23
2023-01-25T14:30:54.967Z,97.50
2023-01-25T14:33:31.391Z,95.73
2023-01-25T14:36:24.143Z,95.77
2023-01-25T14:38:52.049Z,98.70
2023-01-25T14:41:20.227Z,102.40
2023-01-25T14:43:53.792Z,92.73
2023-01-25T14:46:20.486Z,90.83
2023-01-25T14:48:47.220Z,95.17
2023-01-25T14:51:30.065Z,89.10
2023-01-25T14:54:05.227Z,95.53
2023-01-25T14:56:42.733Z,105.50
2023-01-25T14:59:27.387Z,108.10
2023-01-25T15:01:56.166Z,113.63
2023-01-25T15:04:23.378Z,103.07
2023-01-25T15:06:52.483Z,107.07
2023-01-25T15:09:40.528Z,110.87
2023-01-25T15:12:16.108Z,102.03
2023-01-25T15:14:53.786Z,103.47
2023-01-25T15:17:43.883Z,106.20
2023-01-25T15:20:33.552Z,100.17
2023-01-25T15:23:26.342Z,132.17
2023-01-25T15:26:00.710Z,106.57
2023-01-25T15:28:34.210Z,96.60
2023-01-25T15:31:01.106Z,106.73
2023-01-25T15:33:29.695Z,102.33
2023-01-25T15:35:56.544Z,96.07
2023-01-25T15:38:24.293Z,111.60
2023-01-25T15:40:52.024Z,96.10
2023-01-25T15:43:19.774Z,101.23
2023-01-25T15:45:49.292Z,105.00
2023-01-25T15:48:28.755Z,113.40
2023-01-25T15:50:56.475Z,106.83
2023-01-25T15:53:23.878Z,102.90
2023-01-25T15:56:15.468Z,107.30
2023-01-25T15:58:45.701Z,103.57
2023-01-25T16:01:12.834Z,90.43
2023-01-25T16:03:41.484Z,94.57
2023-01-25T16:06:20.563Z,85.90
2023-01-25T16:08:47.328Z,87.27
2023-01-25T16:11:14.029Z,90.47
2023-01-25T16:13:41.368Z,92.40
2023-01-25T16:16:19.362Z,101.03
2023-01-25T16:18:46.286Z,82.90
2023-01-25T16:21:13.219Z,90.53
2023-01-25T16:23:40.483Z,95.83
2023-01-25T16:26:17.644Z,83.90
2023-01-25T16:28:44.241Z,93.20
2023-01-25T16:31:26.284Z,94.67
2023-01-25T16:33:58.427Z,88.33
2023-01-25T16:36:25.113Z,86.07
2023-01-25T16:38:51.704Z,86.63
2023-01-25T16:41:18.731Z,84.30
2023-01-25T16:43:47.694Z,90.93
2023-01-25T16:46:21.016Z,82.20
2023-01-25T16:48:49.367Z,89.40
2023-01-25T16:51:18.337Z,88.93
2023-01-25T16:53:46.536Z,82.63
2023-01-25T16:56:17.283Z,89.60
2023-01-25T16:58:44.210Z,83.73
2023-01-25T17:01:12.619Z,86.03
2023-01-25T17:03:39.329Z,88.17
2023-01-25T17:06:06.699Z,94.67
2023-01-25T17:08:33.598Z,93.20
2023-01-25T17:11:05.323Z,93.30
2023-01-25T17:13:32.447Z,90.10
2023-01-25T17:16:00.927Z,88.17
2023-01-25T17:18:28.038Z,83.77
2023-01-25T17:21:02.750Z,80.97
2023-01-25T17:23:32.272Z,82.80
2023-01-25T17:25:58.904Z,75.43
2023-01-25T17:28:25.486Z,83.17
2023-01-25T17:30:54.336Z,97.13
2023-01-25T17:33:21.138Z,93.23
2023-01-25T17:35:47.735Z,71.60
2023-01-25T17:38:14.445Z,86.83
2023-01-25T17:40:41.211Z,89.57
2023-01-25T17:43:07.759Z,80.13
2023-01-25T17:45:38.443Z,91.10
2023-01-25T17:48:07.607Z,91.17
2023-01-25T17:50:34.669Z,80.13
2023-01-25T17:53:01.335Z,79.07
2023-01-25T17:55:29.574Z,94.13
2023-01-25T17:57:58.410Z,79.77
2023-01-25T18:00:25.120Z,88.57
2023-01-25T18:02:52.186Z,76.67
2023-01-25T18:05:18.899Z,82.63
2023-01-25T18:07:45.503Z,80.87
2023-01-25T18:10:12.618Z,77.27
2023-01-25T18:12:39.496Z,82.33
2023-01-25T18:15:07.002Z,76.57
2023-01-25T18:17:35.617Z,71.00
2023-01-25T18:20:06.728Z,74.93
2023-01-25T18:22:33.334Z,73.77
2023-01-25T18:25:00.788Z,74.57
2023-01-25T18:27:28.884Z,74.37
2023-01-25T18:30:03.856Z,81.33
2023-01-25T18:32:32.795Z,82.73
2023-01-25T18:34:59.643Z,84.80
2023-01-25T18:37:29.364Z,82.60
2023-01-25T18:39:56.816Z,74.37
2023-01-25T18:42:25.813Z,83.03
2023-01-25T18:44:52.515Z,78.20
2023-01-25T18:47:20.812Z,85.10
2023-01-25T18:49:51.776Z,74.17
2023-01-25T18:52:20.440Z,80.90
2023-01-25T18:54:47.280Z,91.23
2023-01-25T18:57:14.353Z,83.13
2023-01-25T18:59:40.989Z,77.97
2023-01-25T19:02:11.413Z,92.70
2023-01-25T19:04:38.074Z,79.43
2023-01-25T19:07:04.829Z,82.97
2023-01-25T19:09:31.707Z,83.77
2023-01-25T19:11:58.372Z,80.93
2023-01-25T19:14:25.292Z,87.43
2023-01-25T19:16:52.262Z,79.70
2023-01-25T19:19:20.796Z,87.90
2023-01-25T19:21:47.862Z,85.93
2023-01-25T19:24:19.415Z,82.87
2023-01-25T19:26:47.231Z,91.83
2023-01-25T19:29:14.729Z,91.60
2023-01-25T19:31:41.331Z,80.53
2023-01-25T19:34:08.015Z,107.17
2023-01-25T19:36:37.230Z,79.90
2023-01-25T19:39:05.727Z,84.23
2023-01-25T19:41:33.803Z,83.03
2023-01-25T19:44:02.500Z,85.30
2023-01-25T19:46:31.564Z,78.73
2023-01-25T19:48:59.536Z,96.93
2023-01-25T19:51:30.389Z,89.67
2023-01-25T19:54:00.167Z,91.27
2023-01-25T19:56:28.456Z,90.53
2023-01-25T19:58:55.241Z,102.30
2023-01-25T20:01:24.724Z,90.73
2023-01-25T20:03:52.119Z,83.73
2023-01-25T20:06:20.402Z,89.70
2023-01-25T20:08:47.803Z,91.93
2023-01-25T20:11:16.936Z,92.47
2023-01-25T20:13:43.916Z,91.30
2023-01-25T20:16:12.269Z,87.60
2023-01-25T20:18:39.578Z,92.90
2023-01-25T20:21:17.913Z,87.30
2023-01-25T20:23:46.553Z,95.87
2023-01-25T20:26:27.878Z,89.50
2023-01-25T20:28:56.920Z,89.80
2023-01-25T20:31:28.617Z,98.13
2023-01-25T20:33:58.316Z,104.60
2023-01-25T20:36:27.815Z,102.90
2023-01-25T20:38:55.310Z,98.43
2023-01-25T20:41:21.852Z,93.47
2023-01-25T20:43:54.015Z,96.37
2023-01-25T20:46:21.718Z,86.83
2023-01-25T20:48:48.981Z,93.70
2023-01-25T20:51:21.258Z,79.37
2023-01-25T20:53:49.422Z,98.17
2023-01-25T20:56:17.988Z,84.77
2023-01-25T20:58:50.207Z,90.63
2023-01-25T21:01:39.929Z,85.40
2023-01-25T21:04:09.373Z,76.67
2023-01-25T21:06:35.979Z,94.10
2023-01-25T21:09:03.193Z,90.00
2023-01-25T21:11:29.997Z,85.67
2023-01-25T21:13:57.113Z,90.87
2023-01-25T21:16:23.770Z,94.33
2023-01-25T21:18:54.423Z,96.33
2023-01-25T21:21:27.593Z,92.10
2023-01-25T21:23:56.859Z,90.87
2023-01-25T21:26:29.373Z,95.60
2023-01-25T21:28:57.800Z,89.60
2023-01-25T21:31:27.546Z,92.03
2023-01-25T21:33:54.964Z,97.27
2023-01-25T21:36:22.523Z,99.57
2023-01-25T21:38:50.650Z,101.13
2023-01-25T21:41:24.006Z,105.77
2023-01-25T21:44:10.648Z,99.10
2023-01-25T21:46:37.918Z,94.43
2023-01-25T21:49:25.459Z,95.00
2023-01-25T21:51:54.451Z,93.57
2023-01-25T21:54:25.821Z,101.63
2023-01-25T21:56:54.219Z,93.67
2023-01-25T21:59:21.524Z,91.00
2023-01-25T22:01:48.976Z,93.17
2023-01-25T22:04:17.582Z,89.37
2023-01-25T22:06:44.674Z,88.37
2023-01-25T22:09:13.205Z,98.80
2023-01-25T22:11:40.158Z,88.40
2023-01-25T22:14:07.122Z,84.17
2023-01-25T22:16:33.901Z,97.70
2023-01-25T22:19:00.492Z,93.93
2023-01-25T22:21:30.957Z,88.97
2023-01-25T22:23:59.612Z,94.50
2023-01-25T22:26:30.523Z,83.00
2023-01-25T22:28:58.419Z,95.63
2023-01-25T22:31:29.970Z,95.00
2023-01-25T22:33:58.959Z,102.23
2023-01-25T22:36:27.480Z,100.70
2023-01-25T22:38:54.275Z,98.97
2023-01-25T22:41:29.862Z,101.90
2023-01-25T22:43:57.789Z,104.07
2023-01-25T22:46:27.196Z,78.87
2023-01-25T22:48:53.797Z,91.43
2023-01-25T22:51:25.243Z,100.90
2023-01-25T22:53:52.295Z,93.80
2023-01-25T22:56:21.158Z,90.10
2023-01-25T22:58:48.164Z,94.57
2023-01-25T23:01:21.110Z,103.30
2023-01-25T23:03:49.202Z,104.67
2023-01-25T23:06:25.507Z,102.23
2023-01-25T23:08:56.035Z,105.93
2023-01-25T23:11:24.510Z,106.77
2023-01-25T23:14:11.529Z,91.57
2023-01-25T23:16:38.081Z,102.30
2023-01-25T23:19:05.710Z,132.23
2023-01-25T23:21:32.521Z,108.70
2023-01-25T23:24:01.259Z,121.50
2023-01-25T23:26:29.640Z,133.30
2023-01-25T23:28:57.513Z,117.00
2023-01-25T23:31:25.299Z,125.83
2023-01-25T23:33:55.976Z,123.93
2023-01-25T23:36:23.936Z,119.10
2023-01-25T23:38:51.336Z,136.07
2023-01-25T23:41:19.580Z,141.13
2023-01-25T23:43:46.410Z,130.90
2023-01-25T23:46:16.165Z,120.37
2023-01-25T23:48:44.236Z,134.67
2023-01-25T23:51:12.068Z,129.10
2023-01-25T23:53:39.695Z,122.87
2023-01-25T23:56:15.753Z,135.20
2023-01-25T23:58:42.481Z,132.50
